createdAt,value
2023-03-28T00:00:21.272Z,83.46
2023-03-28T00:02:52.533Z,85.24
2023-03-28T00:05:24.742Z,84.72
2023-03-28T00:07:56.958Z,85.16
2023-03-28T00:10:27.994Z,85.11
2023-03-28T00:13:01.532Z,85.19
2023-03-28T00:15:33.291Z,85.94
2023-03-28T00:18:05.676Z,85.78
2023-03-28T00:20:39.284Z,86.64
2023-03-28T00:23:26.168Z,86.97
2023-03-28T00:25:58.650Z,87.36
2023-03-28T00:28:29.553Z,87.69
2023-03-28T00:31:11.446Z,87.66
2023-03-28T00:33:42.081Z,87.48
2023-03-28T00:36:14.295Z,87.08
2023-03-28T00:38:46.091Z,86.56
2023-03-28T00:41:18.356Z,85.72
2023-03-28T00:43:52.281Z,85.02
2023-03-28T00:46:32.494Z,84.71
2023-03-28T00:49:09.049Z,84.72
2023-03-28T00:51:42.584Z,84.10
2023-03-28T00:54:17.284Z,84.38
2023-03-28T00:56:51.141Z,84.34
2023-03-28T00:59:24.846Z,84.13
2023-03-28T01:01:56.232Z,83.94
2023-03-28T01:04:29.820Z,83.95
2023-03-28T01:07:00.626Z,83.86
2023-03-28T01:09:31.749Z,83.83
2023-03-28T01:12:05.230Z,83.68
2023-03-28T01:14:39.287Z,83.72
2023-03-28T01:17:11.588Z,83.62
2023-03-28T01:19:55.801Z,83.71
2023-03-28T01:22:56.607Z,83.82
2023-03-28T01:25:53.825Z,83.42
2023-03-28T01:28:52.556Z,83.56
2023-03-28T01:31:41.947Z,83.36
2023-03-28T01:34:19.956Z,82.85
2023-03-28T01:36:59.423Z,82.65
2023-03-28T01:39:41.949Z,82.67
2023-03-28T01:42:48.391Z,82.69
2023-03-28T01:45:24.907Z,82.85
2023-03-28T01:48:19.221Z,82.72
2023-03-28T01:51:01.273Z,83.10
2023-03-28T01:53:37.618Z,82.98
2023-03-28T01:56:18.675Z,83.18
2023-03-28T01:58:55.517Z,83.71
2023-03-28T02:01:33.567Z,84.99
2023-03-28T02:04:20.693Z,85.72
2023-03-28T02:06:44.794Z,86.44
2023-03-28T02:09:17.810Z,87.06
2023-03-28T02:11:51.092Z,87.23
2023-03-28T02:14:25.834Z,87.27
2023-03-28T02:17:00.460Z,87.50
2023-03-28T02:19:33.836Z,87.68
2023-03-28T02:22:25.151Z,87.79
2023-03-28T02:24:56.453Z,87.97
2023-03-28T02:27:29.111Z,87.81
2023-03-28T02:29:59.617Z,87.76
2023-03-28T02:32:32.929Z,87.38
2023-03-28T02:35:07.009Z,86.99
2023-03-28T02:37:44.468Z,86.48
2023-03-28T02:40:20.816Z,86.27
2023-03-28T02:43:13.819Z,85.94
2023-03-28T02:45:53.305Z,85.22
2023-03-28T02:48:33.686Z,84.40
2023-03-28T02:51:25.344Z,84.24
2023-03-28T02:54:19.670Z,83.64
2023-03-28T02:56:59.014Z,82.96
2023-03-28T02:59:32.663Z,82.84
2023-03-28T03:02:04.178Z,82.46
2023-03-28T03:04:34.724Z,82.20
2023-03-28T03:07:05.240Z,81.98
2023-03-28T03:09:35.903Z,81.84
2023-03-28T03:12:06.607Z,82.03
2023-03-28T03:14:39.333Z,82.39
2023-03-28T03:17:09.797Z,82.71
2023-03-28T03:19:43.171Z,82.91
2023-03-28T03:22:20.942Z,83.17
2023-03-28T03:24:46.475Z,83.51
2023-03-28T03:27:17.580Z,84.05
2023-03-28T03:29:48.635Z,84.63
2023-03-28T03:32:19.308Z,84.89
2023-03-28T03:34:50.734Z,85.14
2023-03-28T03:37:21.310Z,85.34
2023-03-28T03:39:51.912Z,85.46
2023-03-28T03:42:24.537Z,85.60
2023-03-28T03:44:55.405Z,85.79
2023-03-28T03:47:29.645Z,85.84
2023-03-28T03:50:00.308Z,86.02
2023-03-28T03:52:32.082Z,86.13
2023-03-28T03:55:02.566Z,86.33
2023-03-28T03:57:34.464Z,86.34
2023-03-28T04:00:08.816Z,86.51
2023-03-28T04:02:42.153Z,86.54
2023-03-28T04:05:12.869Z,86.55
2023-03-28T04:07:43.528Z,86.68
2023-03-28T04:10:15.050Z,86.73
2023-03-28T04:12:45.722Z,86.79
2023-03-28T04:15:16.438Z,87.00
2023-03-28T04:17:48.934Z,86.98
2023-03-28T04:20:20.955Z,86.79
2023-03-28T04:22:51.481Z,86.89
2023-03-28T04:25:24.981Z,86.87
2023-03-28T04:27:57.010Z,86.83
2023-03-28T04:30:27.858Z,86.74
2023-03-28T04:32:59.187Z,86.89
2023-03-28T04:35:29.825Z,86.70
2023-03-28T04:38:02.989Z,86.91
2023-03-28T04:40:35.354Z,86.80
2023-03-28T04:43:05.995Z,86.62
2023-03-28T04:45:36.536Z,86.42
2023-03-28T04:48:08.817Z,86.21
2023-03-28T04:50:39.713Z,86.01
2023-03-28T04:53:10.909Z,85.90
2023-03-28T04:55:45.508Z,85.98
2023-03-28T04:58:17.988Z,85.56
2023-03-28T05:00:49.648Z,85.49
2023-03-28T05:03:22.943Z,85.60
2023-03-28T05:05:54.490Z,85.75
2023-03-28T05:08:26.599Z,85.66
2023-03-28T05:10:57.252Z,85.64
2023-03-28T05:13:28.227Z,85.35
2023-03-28T05:15:58.989Z,84.89
2023-03-28T05:18:29.734Z,84.29
2023-03-28T05:21:00.671Z,84.16
2023-03-28T05:23:31.427Z,84.34
2023-03-28T05:26:02.673Z,85.43
2023-03-28T05:28:36.225Z,86.00
2023-03-28T05:31:12.852Z,84.80
2023-03-28T05:33:45.664Z,84.90
2023-03-28T05:36:17.754Z,84.08
2023-03-28T05:38:50.941Z,83.82
2023-03-28T05:41:22.945Z,83.86
2023-03-28T05:43:54.282Z,81.55
2023-03-28T05:46:24.947Z,76.58
2023-03-28T05:48:56.059Z,74.59
2023-03-28T05:51:27.594Z,74.11
2023-03-28T05:54:00.839Z,71.60
2023-03-28T05:56:34.829Z,70.62
2023-03-28T05:59:06.805Z,69.10
2023-03-28T06:01:40.145Z,68.18
2023-03-28T06:04:11.456Z,67.10
2023-03-28T06:06:50.266Z,67.76
2023-03-28T06:09:22.926Z,68.75
2023-03-28T06:11:56.447Z,73.88
2023-03-28T06:14:27.224Z,77.03
2023-03-28T06:16:58.040Z,78.54
2023-03-28T06:19:29.328Z,79.67
2023-03-28T06:21:59.821Z,80.16
2023-03-28T06:24:30.660Z,80.54
2023-03-28T06:27:01.388Z,80.17
2023-03-28T06:29:32.057Z,80.25
2023-03-28T06:32:02.777Z,80.42
2023-03-28T06:34:33.530Z,80.56
2023-03-28T06:37:06.713Z,80.21
2023-03-28T06:39:37.170Z,80.14
2023-03-28T06:42:08.576Z,79.99
2023-03-28T06:44:39.110Z,79.65
2023-03-28T06:47:09.571Z,79.54
2023-03-28T06:49:41.388Z,79.10
2023-03-28T06:52:12.091Z,79.03
2023-03-28T06:54:42.645Z,79.05
2023-03-28T06:57:13.508Z,78.24
2023-03-28T06:59:44.429Z,77.56
2023-03-28T07:02:17.661Z,77.53
2023-03-28T07:04:48.449Z,77.31
2023-03-28T07:07:19.133Z,77.32
2023-03-28T07:09:54.625Z,76.89
2023-03-28T07:12:26.255Z,76.47
2023-03-28T07:14:57.852Z,75.81
2023-03-28T07:17:28.569Z,74.82
2023-03-28T07:20:01.306Z,75.32
2023-03-28T07:22:32.562Z,74.45
2023-03-28T07:25:04.763Z,73.86
2023-03-28T07:27:35.808Z,73.75
2023-03-28T07:30:08.447Z,73.58
2023-03-28T07:32:53.020Z,73.00
2023-03-28T07:35:13.555Z,73.26
2023-03-28T07:37:44.284Z,73.28
2023-03-28T07:40:15.305Z,72.71
2023-03-28T07:42:47.484Z,71.70
2023-03-28T07:45:18.214Z,71.84
2023-03-28T07:47:50.064Z,71.81
2023-03-28T07:50:23.630Z,70.95
2023-03-28T07:53:01.080Z,70.23
2023-03-28T07:55:44.948Z,69.19
2023-03-28T07:58:08.902Z,67.69
2023-03-28T08:00:40.363Z,67.05
2023-03-28T08:03:13.760Z,65.80
2023-03-28T08:05:48.486Z,65.13
2023-03-28T08:08:20.899Z,67.15
2023-03-28T08:10:52.674Z,62.71
2023-03-28T08:13:24.948Z,61.79
2023-03-28T08:15:57.138Z,63.54
2023-03-28T08:18:28.117Z,63.19
2023-03-28T08:21:02.213Z,63.44
2023-03-28T08:23:33.492Z,63.07
2023-03-28T08:26:07.809Z,63.64
2023-03-28T08:28:39.535Z,63.50
2023-03-28T08:31:14.504Z,62.88
2023-03-28T08:33:51.679Z,60.94
2023-03-28T08:36:24.462Z,61.67
2023-03-28T08:38:57.317Z,60.88
2023-03-28T08:41:46.061Z,59.21
2023-03-28T08:44:26.144Z,58.41
2023-03-28T08:47:03.256Z,58.89
2023-03-28T08:49:38.111Z,58.31
2023-03-28T08:52:11.482Z,57.87
2023-03-28T08:54:48.084Z,57.02
2023-03-28T08:57:25.059Z,56.47
2023-03-28T09:00:16.924Z,57.76
2023-03-28T09:02:49.757Z,57.12
2023-03-28T09:05:24.089Z,56.59
2023-03-28T09:08:23.306Z,55.98
2023-03-28T09:11:13.908Z,56.54
2023-03-28T09:14:00.531Z,54.06
2023-03-28T09:16:51.986Z,54.35
2023-03-28T09:19:48.996Z,53.76
2023-03-28T09:22:38.119Z,52.04
2023-03-28T09:25:44.648Z,52.14
2023-03-28T09:28:21.393Z,54.16
2023-03-28T09:30:54.206Z,52.95
2023-03-28T09:33:33.409Z,51.53
2023-03-28T09:36:06.863Z,51.86
2023-03-28T09:38:42.576Z,50.86
2023-03-28T09:41:20.641Z,51.10
2023-03-28T09:43:54.251Z,49.02
2023-03-28T09:46:49.177Z,50.36
2023-03-28T09:49:23.736Z,49.53
2023-03-28T09:51:57.056Z,49.71
2023-03-28T09:54:36.604Z,49.92
2023-03-28T09:57:08.722Z,48.55
2023-03-28T09:59:39.725Z,49.96
2023-03-28T10:02:28.717Z,50.12
2023-03-28T10:04:59.644Z,50.16
2023-03-28T10:07:39.247Z,49.97
2023-03-28T10:10:22.370Z,50.28
2023-03-28T10:12:59.800Z,49.49
2023-03-28T10:15:42.772Z,50.38
2023-03-28T10:18:21.629Z,49.47
2023-03-28T10:20:52.402Z,49.11
2023-03-28T10:23:27.179Z,48.96
2023-03-28T10:26:01.036Z,49.04
2023-03-28T10:28:34.594Z,48.74
2023-03-28T10:31:07.700Z,47.88
2023-03-28T10:33:44.153Z,47.80
2023-03-28T10:36:17.866Z,47.14
2023-03-28T10:38:50.257Z,45.94
2023-03-28T10:41:25.719Z,46.53
2023-03-28T10:43:57.026Z,46.95
2023-03-28T10:46:38.064Z,47.36
2023-03-28T10:49:16.954Z,47.55
2023-03-28T10:51:48.658Z,48.06
2023-03-28T10:54:46.220Z,48.09
2023-03-28T10:57:32.774Z,46.76
2023-03-28T11:00:15.492Z,45.59
2023-03-28T11:03:01.089Z,45.14
2023-03-28T11:05:34.797Z,45.94
2023-03-28T11:08:30.580Z,46.46
2023-03-28T11:11:10.406Z,46.57
2023-03-28T11:13:58.548Z,45.25
2023-03-28T11:16:37.856Z,46.10
2023-03-28T11:19:21.096Z,46.20
2023-03-28T11:22:21.612Z,46.20
2023-03-28T11:25:15.911Z,46.30
2023-03-28T11:27:49.428Z,45.86
2023-03-28T11:30:23.029Z,45.27
2023-03-28T11:33:05.409Z,43.92
2023-03-28T11:35:48.404Z,43.32
2023-03-28T11:38:31.012Z,41.78
2023-03-28T11:41:04.572Z,41.80
2023-03-28T11:44:00.880Z,41.70
2023-03-28T11:46:38.108Z,41.36
2023-03-28T11:49:46.074Z,41.41
2023-03-28T11:52:28.911Z,42.31
2023-03-28T11:55:15.079Z,41.75
2023-03-28T11:58:12.512Z,41.81
2023-03-28T12:00:54.835Z,41.68
2023-03-28T12:03:36.017Z,41.98
2023-03-28T12:06:34.357Z,42.22
2023-03-28T12:09:20.222Z,41.01
2023-03-28T12:11:54.048Z,40.97
2023-03-28T12:14:56.811Z,41.91
2023-03-28T12:17:30.725Z,42.17
2023-03-28T12:20:01.331Z,42.08
2023-03-28T12:22:38.227Z,42.36
2023-03-28T12:25:14.108Z,41.96
2023-03-28T12:27:47.624Z,42.13
2023-03-28T12:30:39.106Z,41.77
2023-03-28T12:33:23.090Z,41.81
2023-03-28T12:36:17.620Z,40.58
2023-03-28T12:38:57.813Z,40.69
2023-03-28T12:41:34.014Z,40.67
2023-03-28T12:44:11.051Z,41.56
2023-03-28T12:46:47.600Z,42.07
2023-03-28T12:49:21.126Z,42.60
2023-03-28T12:51:54.875Z,42.86
2023-03-28T12:54:28.464Z,42.34
2023-03-28T12:57:07.957Z,41.74
2023-03-28T12:59:45.797Z,42.34
2023-03-28T13:02:31.395Z,39.72
2023-03-28T13:05:15.468Z,40.77
2023-03-28T13:07:52.372Z,38.88
2023-03-28T13:10:44.896Z,39.58
2023-03-28T13:13:43.201Z,40.15
2023-03-28T13:16:25.550Z,40.53
2023-03-28T13:19:09.516Z,39.33
2023-03-28T13:21:49.598Z,40.42
2023-03-28T13:24:36.216Z,40.48
2023-03-28T13:27:16.557Z,41.33
2023-03-28T13:29:49.899Z,41.35
2023-03-28T13:32:25.603Z,41.59
2023-03-28T13:34:59.900Z,40.38
2023-03-28T13:37:46.288Z,40.96
2023-03-28T13:40:41.856Z,41.19
2023-03-28T13:43:43.776Z,41.21
2023-03-28T13:46:17.766Z,41.40
2023-03-28T13:48:57.280Z,41.69
2023-03-28T13:51:30.854Z,41.45
2023-03-28T13:54:01.406Z,40.58
2023-03-28T13:56:36.401Z,39.73
2023-03-28T13:59:08.736Z,39.49
2023-03-28T14:01:57.349Z,40.18
2023-03-28T14:04:33.453Z,39.76
2023-03-28T14:07:05.736Z,39.81
2023-03-28T14:09:37.899Z,39.87
2023-03-28T14:12:12.454Z,40.38
2023-03-28T14:14:55.647Z,39.88
2023-03-28T14:17:32.546Z,39.67
2023-03-28T14:20:06.209Z,38.89
2023-03-28T14:22:49.409Z,38.35
2023-03-28T14:25:17.932Z,38.30
2023-03-28T14:27:55.197Z,38.40
2023-03-28T14:30:32.081Z,38.52
2023-03-28T14:33:13.478Z,38.52
2023-03-28T14:35:45.639Z,38.90
2023-03-28T14:38:19.981Z,38.86
2023-03-28T14:40:50.643Z,38.68
2023-03-28T14:43:33.392Z,39.03
2023-03-28T14:48:40.160Z,37.87
2023-03-28T14:51:13.600Z,37.28
2023-03-28T14:53:48.642Z,37.62
2023-03-28T14:56:25.781Z,38.41
2023-03-28T14:59:02.314Z,38.56
2023-03-28T15:01:34.212Z,38.52
2023-03-28T15:04:08.272Z,36.72
2023-03-28T15:06:39.234Z,37.06
2023-03-28T15:09:28.401Z,37.41
2023-03-28T15:12:01.912Z,37.29
2023-03-28T15:14:38.688Z,37.44
2023-03-28T15:17:18.045Z,37.08
2023-03-28T15:19:53.265Z,37.52
2023-03-28T15:22:27.229Z,38.95
2023-03-28T15:24:59.308Z,39.20
2023-03-28T15:27:35.853Z,39.09
2023-03-28T15:30:32.298Z,38.65
2023-03-28T15:33:07.063Z,38.79
2023-03-28T15:35:40.371Z,38.60
2023-03-28T15:38:25.710Z,38.55
2023-03-28T15:41:14.524Z,38.69
2023-03-28T15:43:58.255Z,39.07
2023-03-28T15:46:35.257Z,38.01
2023-03-28T15:49:09.192Z,38.68
2023-03-28T15:51:44.182Z,39.82
2023-03-28T15:54:28.126Z,40.42
2023-03-28T15:56:49.926Z,41.02
2023-03-28T15:59:23.494Z,41.06
2023-03-28T16:02:13.499Z,41.19
2023-03-28T16:04:57.936Z,41.41
2023-03-28T16:07:37.120Z,41.61
2023-03-28T16:10:08.347Z,41.90
2023-03-28T16:12:39.078Z,41.94
2023-03-28T16:15:10.496Z,42.71
2023-03-28T16:17:44.194Z,42.81
2023-03-28T16:20:25.387Z,43.21
2023-03-28T16:22:56.893Z,42.61
2023-03-28T16:25:30.394Z,42.81
2023-03-28T16:28:00.971Z,42.47
2023-03-28T16:30:34.894Z,42.84
2023-03-28T16:33:06.446Z,43.03
2023-03-28T16:35:39.258Z,43.25
2023-03-28T16:38:17.312Z,43.33
2023-03-28T16:40:50.127Z,43.30
2023-03-28T16:43:27.069Z,43.35
2023-03-28T16:45:57.663Z,43.73
2023-03-28T16:48:28.300Z,43.90
2023-03-28T16:51:02.237Z,44.29
2023-03-28T16:53:40.336Z,43.79
2023-03-28T16:56:14.135Z,44.33
2023-03-28T16:58:55.655Z,44.96
2023-03-28T17:01:28.126Z,44.69
2023-03-28T17:03:59.974Z,45.33
2023-03-28T17:06:33.670Z,45.10
2023-03-28T17:09:04.564Z,45.84
2023-03-28T17:11:37.533Z,45.72
2023-03-28T17:14:08.143Z,45.86
2023-03-28T17:16:40.566Z,46.23
2023-03-28T17:19:17.734Z,46.74
2023-03-28T17:21:54.470Z,47.07
2023-03-28T17:24:25.136Z,46.92
2023-03-28T17:26:56.079Z,47.34
2023-03-28T17:29:26.910Z,47.29
2023-03-28T17:31:57.523Z,47.46
2023-03-28T17:34:33.293Z,47.88
2023-03-28T17:37:06.295Z,48.21
2023-03-28T17:39:40.593Z,48.32
2023-03-28T17:42:11.857Z,48.33
2023-03-28T17:44:42.392Z,48.79
2023-03-28T17:47:15.055Z,49.20
2023-03-28T17:49:45.693Z,49.02
2023-03-28T17:52:16.596Z,49.61
2023-03-28T17:54:49.563Z,49.94
2023-03-28T17:57:19.614Z,50.33
2023-03-28T17:59:50.544Z,50.21
2023-03-28T18:02:21.690Z,50.60
2023-03-28T18:04:52.409Z,51.16
2023-03-28T18:07:23.492Z,51.33
2023-03-28T18:09:55.330Z,51.44
2023-03-28T18:12:27.300Z,51.89
2023-03-28T18:15:01.146Z,52.06
2023-03-28T18:17:32.259Z,52.20
2023-03-28T18:20:03.265Z,52.26
2023-03-28T18:22:36.753Z,52.67
2023-03-28T18:25:08.513Z,53.31
2023-03-28T18:27:39.148Z,53.65
2023-03-28T18:30:10.589Z,53.50
2023-03-28T18:32:41.262Z,53.69
2023-03-28T18:35:13.807Z,54.02
2023-03-28T18:37:46.114Z,54.00
2023-03-28T18:40:16.927Z,54.03
2023-03-28T18:42:48.629Z,54.15
2023-03-28T18:45:19.272Z,53.79
2023-03-28T18:47:49.933Z,53.88
2023-03-28T18:50:21.149Z,54.37
2023-03-28T18:52:52.888Z,54.11
2023-03-28T18:55:23.625Z,54.13
2023-03-28T18:57:54.192Z,54.79
2023-03-28T19:00:25.325Z,55.46
2023-03-28T19:02:55.902Z,55.70
2023-03-28T19:05:28.391Z,56.35
2023-03-28T19:07:59.880Z,56.69
2023-03-28T19:10:31.923Z,57.19
2023-03-28T19:13:02.424Z,57.48
2023-03-28T19:15:33.018Z,58.35
2023-03-28T19:18:06.753Z,58.67
2023-03-28T19:20:38.498Z,59.11
2023-03-28T19:23:09.173Z,59.75
2023-03-28T19:25:42.471Z,59.67
2023-03-28T19:28:12.954Z,60.25
2023-03-28T19:30:44.953Z,60.50
2023-03-28T19:33:15.858Z,61.33
2023-03-28T19:35:47.298Z,61.39
2023-03-28T19:38:18.041Z,61.32
2023-03-28T19:40:52.981Z,61.67
2023-03-28T19:43:27.012Z,61.20
2023-03-28T19:46:06.340Z,61.69
2023-03-28T19:48:36.978Z,61.45
2023-03-28T19:51:07.661Z,61.62
2023-03-28T19:53:38.988Z,61.75
2023-03-28T19:56:11.847Z,61.86
2023-03-28T19:58:42.693Z,62.46
2023-03-28T20:01:13.524Z,62.32
2023-03-28T20:03:44.327Z,62.81
2023-03-28T20:06:17.073Z,62.80
2023-03-28T20:08:48.411Z,62.68
2023-03-28T20:11:19.635Z,62.96
2023-03-28T20:13:50.477Z,62.08
2023-03-28T20:16:21.445Z,62.63
2023-03-28T20:18:55.350Z,63.30
2023-03-28T20:21:27.671Z,63.52
2023-03-28T20:23:59.085Z,63.84
2023-03-28T20:26:31.354Z,64.30
2023-03-28T20:29:01.970Z,64.32
2023-03-28T20:31:34.377Z,64.82
2023-03-28T20:34:05.090Z,65.70
2023-03-28T20:36:36.598Z,65.76
2023-03-28T20:39:07.105Z,65.80
2023-03-28T20:41:38.157Z,65.59
2023-03-28T20:44:08.725Z,66.15
2023-03-28T20:46:39.318Z,66.07
2023-03-28T20:49:10.776Z,65.72
2023-03-28T20:51:41.429Z,66.46
2023-03-28T20:54:12.280Z,66.17
2023-03-28T20:56:43.147Z,66.47
2023-03-28T20:59:13.827Z,66.79
2023-03-28T21:01:45.999Z,67.18
2023-03-28T21:04:17.099Z,67.41
2023-03-28T21:06:50.432Z,68.10
2023-03-28T21:09:21.147Z,68.66
2023-03-28T21:11:53.624Z,68.89
2023-03-28T21:14:24.993Z,69.05
2023-03-28T21:16:57.819Z,69.46
2023-03-28T21:19:30.437Z,69.24
2023-03-28T21:22:01.557Z,69.54
2023-03-28T21:24:35.844Z,69.48
2023-03-28T21:27:06.823Z,69.17
2023-03-28T21:29:45.904Z,69.53
2023-03-28T21:32:16.150Z,69.56
2023-03-28T21:34:48.418Z,69.12
2023-03-28T21:37:28.832Z,68.49
2023-03-28T21:40:02.543Z,68.67
2023-03-28T21:42:35.016Z,68.17
2023-03-28T21:45:06.169Z,67.42
2023-03-28T21:47:40.310Z,67.66
2023-03-28T21:50:14.985Z,67.37
2023-03-28T21:52:45.890Z,67.85
2023-03-28T21:55:17.170Z,67.87
2023-03-28T21:57:47.626Z,67.60
2023-03-28T22:00:21.041Z,67.62
2023-03-28T22:02:54.932Z,68.07
2023-03-28T22:05:29.736Z,68.19
2023-03-28T22:07:58.630Z,68.09
2023-03-28T22:10:30.199Z,68.49
2023-03-28T22:13:02.350Z,68.59
2023-03-28T22:15:36.319Z,69.28
2023-03-28T22:18:08.976Z,69.41
2023-03-28T22:20:44.017Z,69.75
2023-03-28T22:23:14.607Z,69.10
2023-03-28T22:25:46.767Z,68.98
2023-03-28T22:28:20.068Z,68.83
2023-03-28T22:30:51.500Z,69.21
2023-03-28T22:33:23.259Z,69.26
2023-03-28T22:35:57.288Z,69.32
2023-03-28T22:38:29.844Z,69.41
2023-03-28T22:41:02.856Z,70.18
2023-03-28T22:43:37.146Z,69.40
2023-03-28T22:46:08.019Z,69.73
2023-03-28T22:48:39.360Z,70.06
2023-03-28T22:51:11.737Z,70.56
2023-03-28T22:53:42.551Z,70.91
2023-03-28T22:56:13.533Z,71.24
2023-03-28T22:58:44.253Z,71.64
2023-03-28T23:01:15.604Z,70.78
2023-03-28T23:03:46.736Z,70.89
2023-03-28T23:06:21.729Z,71.29
2023-03-28T23:08:52.473Z,71.73
2023-03-28T23:11:23.361Z,72.14
2023-03-28T23:13:53.974Z,71.89
2023-03-28T23:16:28.767Z,71.29
2023-03-28T23:18:59.817Z,71.27
2023-03-28T23:21:31.042Z,71.23
2023-03-28T23:24:02.413Z,72.04
2023-03-28T23:26:32.930Z,71.32
2023-03-28T23:29:05.624Z,71.49
2023-03-28T23:31:36.514Z,71.49
2023-03-28T23:34:09.879Z,71.53
2023-03-28T23:36:47.406Z,71.71
2023-03-28T23:39:17.784Z,71.46
2023-03-28T23:41:50.173Z,71.61
2023-03-28T23:44:27.851Z,71.62
2023-03-28T23:47:00.590Z,71.86
2023-03-28T23:49:32.393Z,71.80
2023-03-28T23:52:03.730Z,72.08
2023-03-28T23:54:34.576Z,72.45
2023-03-28T23:57:05.696Z,72.58
2023-03-28T23:59:36.721Z,72.54
